Time;durP1;ratioP1;P1;durP2;ratioP2;P2;SDS_P1;SDS_P2;PMS_P1;PMS_P2;Temp;Humidity;BMP_temperature;BMP_pressure;BME280_temperature;BME280_humidity;BME280_pressure;Samples;Min_cycle;Max_cycle;Signal;HPM_P1;HPM_P2
2023/06/14 00:01:55;;;;;;;7.68;3.70;;;;;;;15.64;42.57;96234.28;4918178;29;20056;-82
2023/06/14 00:04:25;;;;;;;4.72;4.22;;;;;;;15.60;42.53;96227.06;4918278;29;20044;-82
2023/06/14 00:06:53;;;;;;;4.78;4.30;;;;;;;15.55;42.73;96230.34;4918038;29;20059;-82
2023/06/14 00:09:21;;;;;;;5.95;4.30;;;;;;;15.52;42.61;96235.25;4918199;29;20479;-82
2023/06/14 00:11:49;;;;;;;6.85;4.20;;;;;;;15.48;42.67;96232.28;4918037;29;20140;-82
2023/06/14 00:14:18;;;;;;;5.88;3.78;;;;;;;15.47;43.31;96233.28;4917139;29;20568;-83
2023/06/14 00:16:45;;;;;;;5.43;3.90;;;;;;;15.52;43.53;96235.25;4917668;29;20527;-82
2023/06/14 00:19:13;;;;;;;5.63;4.15;;;;;;;15.51;43.78;96229.19;4918375;29;20048;-82
2023/06/14 00:21:41;;;;;;;5.60;4.38;;;;;;;15.49;44.05;96222.56;4917759;29;20052;-82
2023/06/14 00:24:09;;;;;;;6.95;4.28;;;;;;;15.47;44.09;96217.50;4917483;29;20055;-81
2023/06/14 00:26:36;;;;;;;5.03;4.35;;;;;;;15.44;44.14;96215.34;4917841;29;20054;-82
2023/06/14 00:29:04;;;;;;;6.63;4.13;;;;;;;15.38;44.45;96214.38;4917599;29;20083;-82
2023/06/14 00:31:33;;;;;;;4.50;4.10;;;;;;;15.33;44.28;96219.50;4917724;29;20056;-82
2023/06/14 00:34:00;;;;;;;5.18;4.13;;;;;;;15.29;44.84;96220.19;4917543;29;20055;-82
2023/06/14 00:36:28;;;;;;;6.22;3.88;;;;;;;15.21;44.94;96214.19;4917106;29;20048;-82
2023/06/14 00:38:56;;;;;;;4.22;3.83;;;;;;;15.16;44.82;96219.31;4917607;29;20056;-82
2023/06/14 00:41:23;;;;;;;5.82;4.05;;;;;;;15.12;44.38;96220.75;4917620;29;20123;-83
2023/06/14 00:43:51;;;;;;;5.68;4.13;;;;;;;15.12;44.25;96214.72;4918061;29;20527;-82
2023/06/14 00:46:19;;;;;;;5.00;4.18;;;;;;;15.11;43.81;96213.91;4917332;29;20044;-82
2023/06/14 00:48:49;;;;;;;5.70;4.13;;;;;;;15.07;43.99;96218.00;4917352;29;20431;-82
2023/06/14 00:51:17;;;;;;;6.45;4.03;;;;;;;15.04;44.07;96215.78;4917674;29;20138;-82
2023/06/14 00:53:46;;;;;;;4.88;4.22;;;;;;;15.02;44.02;96210.78;4917272;29;20119;-83
2023/06/14 00:56:15;;;;;;;4.18;3.78;;;;;;;14.97;44.21;96215.06;4917329;29;20100;-82
2023/06/14 00:58:43;;;;;;;6.57;4.38;;;;;;;14.92;44.48;96217.56;4917124;29;20048;-82
2023/06/14 01:01:12;;;;;;;4.75;4.30;;;;;;;14.84;44.63;96219.44;4917559;29;20108;-82
2023/06/14 01:03:40;;;;;;;5.78;4.00;;;;;;;14.79;44.55;96210.63;4917440;29;20142;-82
2023/06/14 01:06:26;;;;;;;6.30;4.30;;;;;;;14.74;45.15;96213.09;4917141;29;20075;-82
2023/06/14 01:09:04;;;;;;;5.35;3.90;;;;;;;14.65;45.62;96220.44;4917170;29;20066;-82
2023/06/14 01:11:38;;;;;;;6.40;4.65;;;;;;;14.56;45.45;96211.22;4917133;29;20060;-82
2023/06/14 01:14:07;;;;;;;6.20;3.92;;;;;;;14.49;45.18;96219.13;4916686;29;20052;-82
2023/06/14 01:16:39;;;;;;;6.80;4.63;;;;;;;14.46;45.35;96216.16;4916297;29;20104;-82
2023/06/14 01:19:12;;;;;;;4.70;4.10;;;;;;;14.46;45.56;96224.03;4916417;29;20048;-82
2023/06/14 01:21:42;;;;;;;5.15;4.18;;;;;;;14.48;45.67;96225.41;4916861;29;20107;-82
2023/06/14 01:24:11;;;;;;;5.38;3.97;;;;;;;14.51;45.72;96213.69;4916476;29;20087;-82
2023/06/14 01:26:45;;;;;;;6.50;4.60;;;;;;;14.48;46.10;96214.13;4916760;29;20048;-82
2023/06/14 01:29:16;;;;;;;5.90;4.40;;;;;;;14.41;46.45;96222.84;4920682;29;20056;-82
2023/06/14 01:31:45;;;;;;;6.05;4.47;;;;;;;14.36;46.70;96209.56;4920505;29;20048;-82
2023/06/14 01:34:12;;;;;;;7.68;4.45;;;;;;;14.30;46.85;96215.69;4920249;29;20140;-82
2023/06/14 01:36:42;;;;;;;5.40;4.90;;;;;;;14.24;46.92;96213.91;4919670;29;20060;-82
2023/06/14 01:39:14;;;;;;;5.20;4.53;;;;;;;14.21;46.82;96209.91;4920292;29;20560;-82
2023/06/14 01:41:44;;;;;;;5.32;4.55;;;;;;;14.18;46.75;96214.75;4920778;29;20056;-82
2023/06/14 01:44:15;;;;;;;6.03;4.78;;;;;;;14.14;47.59;96218.81;4921893;29;20071;-81
2023/06/14 01:46:44;;;;;;;5.95;5.10;;;;;;;14.09;47.67;96218.66;4922813;29;20123;-82
2023/06/14 01:49:12;;;;;;;7.50;5.47;;;;;;;14.05;47.72;96214.84;4939186;29;20529;-82
2023/06/14 01:51:39;;;;;;;7.22;5.53;;;;;;;14.02;47.93;96216.09;4943667;29;20084;-83
2023/06/14 01:54:07;;;;;;;8.15;5.50;;;;;;;13.98;47.89;96205.22;4942828;29;20036;-82
2023/06/14 01:56:36;;;;;;;6.22;4.95;;;;;;;13.95;47.81;96218.75;4928009;29;20573;-82
2023/06/14 01:59:04;;;;;;;6.03;5.40;;;;;;;13.90;47.52;96213.31;4927874;29;20135;-82
2023/06/14 02:01:34;;;;;;;7.50;4.63;;;;;;;13.84;47.42;96214.19;4933495;29;20059;-82
2023/06/14 02:04:02;;;;;;;7.32;5.05;;;;;;;13.80;47.57;96210.38;4932919;29;20056;-82
2023/06/14 02:06:29;;;;;;;8.55;5.32;;;;;;;13.76;47.51;96222.31;4936671;29;20107;-83
2023/06/14 02:08:57;;;;;;;6.57;4.90;;;;;;;13.73;47.84;96217.47;4940188;29;20063;-82
2023/06/14 02:11:25;;;;;;;6.47;4.40;;;;;;;13.69;47.61;96216.31;4938265;29;20073;-82
2023/06/14 02:13:55;;;;;;;5.20;4.68;;;;;;;13.65;48.08;96215.13;4940702;29;20464;-82
2023/06/14 02:16:22;;;;;;;8.45;4.97;;;;;;;13.60;48.19;96223.63;4940177;29;20056;-82
2023/06/14 02:18:51;;;;;;;5.88;4.55;;;;;;;13.56;48.20;96217.97;4940023;29;20056;-82
2023/06/14 02:21:19;;;;;;;8.10;4.88;;;;;;;13.55;47.75;96216.34;4941235;29;20056;-81
2023/06/14 02:23:46;;;;;;;9.70;4.40;;;;;;;13.55;47.97;96216.34;4941548;29;20032;-82
2023/06/14 02:26:14;;;;;;;8.18;4.30;;;;;;;13.52;47.95;96208.13;4940927;29;20065;-81
2023/06/14 02:28:42;;;;;;;6.55;4.45;;;;;;;13.52;47.91;96205.50;4940598;29;20056;-81
2023/06/14 02:31:11;;;;;;;6.93;4.50;;;;;;;13.48;48.05;96212.97;4940954;29;20052;-82
2023/06/14 02:33:39;;;;;;;6.10;4.25;;;;;;;13.46;48.15;96208.97;4940431;29;20076;-80
2023/06/14 02:36:07;;;;;;;6.35;4.95;;;;;;;13.43;48.22;96215.41;4941434;29;20037;-81
2023/06/14 02:38:34;;;;;;;7.32;5.35;;;;;;;13.43;49.07;96212.00;4942923;29;20032;-82
2023/06/14 02:41:02;;;;;;;11.45;6.65;;;;;;;13.43;49.48;96214.63;4942370;29;20055;-81
2023/06/14 02:43:30;;;;;;;6.22;5.18;;;;;;;13.42;49.37;96213.00;4940448;29;20052;-81
2023/06/14 02:45:58;;;;;;;6.57;5.00;;;;;;;13.43;49.23;96209.38;4940325;29;20054;-81
2023/06/14 02:48:28;;;;;;;7.13;5.03;;;;;;;13.42;49.25;96213.81;4940580;29;20119;-81
2023/06/14 02:50:56;;;;;;;7.88;4.93;;;;;;;13.39;49.43;96216.84;4940751;29;20052;-81
2023/06/14 02:53:24;;;;;;;5.55;5.03;;;;;;;13.34;48.94;96214.84;4941778;29;20068;-80
2023/06/14 02:55:52;;;;;;;5.50;4.10;;;;;;;13.38;48.91;96209.97;4942959;29;20044;-81
2023/06/14 02:58:20;;;;;;;5.60;4.50;;;;;;;13.41;48.41;96212.22;4942802;29;20088;-80
2023/06/14 03:00:48;;;;;;;7.03;4.65;;;;;;;13.35;48.40;96213.84;4943247;29;20060;-81
2023/06/14 03:03:16;;;;;;;5.53;4.80;;;;;;;13.33;48.52;96223.72;4943142;29;20062;-81
2023/06/14 03:05:49;;;;;;;5.28;4.63;;;;;;;13.29;49.03;96219.91;4942726;29;20352;-81
2023/06/14 03:08:19;;;;;;;5.32;4.10;;;;;;;13.28;48.70;96218.31;4942159;29;20107;-80
2023/06/14 03:10:47;;;;;;;7.70;4.28;;;;;;;13.26;48.52;96222.91;4939286;29;20054;-80
2023/06/14 03:13:17;;;;;;;7.07;4.53;;;;;;;13.21;48.92;96222.75;4937080;29;20056;-80
2023/06/14 03:15:44;;;;;;;4.72;4.10;;;;;;;13.17;49.28;96222.34;4939518;29;20111;-80
2023/06/14 03:18:12;;;;;;;5.80;4.70;;;;;;;13.14;49.13;96225.38;4939939;29;20048;-80
2023/06/14 03:20:40;;;;;;;5.53;4.53;;;;;;;13.10;48.91;96224.19;4941304;29;20056;-80
2023/06/14 03:23:10;;;;;;;6.30;4.65;;;;;;;13.08;49.52;96230.66;4934634;29;20132;-79
2023/06/14 03:25:38;;;;;;;6.50;4.28;;;;;;;13.05;48.96;96228.41;4937788;29;20059;-80
2023/06/14 03:28:06;;;;;;;5.82;4.32;;;;;;;13.03;48.83;96223.41;4939488;29;20040;-80
2023/06/14 03:30:34;;;;;;;5.18;4.32;;;;;;;13.00;48.89;96231.66;4939794;29;20043;-80
2023/06/14 03:33:02;;;;;;;4.75;3.90;;;;;;;12.97;49.05;96224.22;4938976;29;20052;-79
2023/06/14 03:35:30;;;;;;;6.90;4.25;;;;;;;12.98;49.35;96225.81;4937419;29;20058;-79
2023/06/14 03:37:58;;;;;;;7.70;4.55;;;;;;;12.98;49.47;96231.06;4936724;29;20044;-80
2023/06/14 03:40:28;;;;;;;7.40;4.25;;;;;;;12.99;49.39;96230.06;4936678;29;20052;-80
2023/06/14 03:42:56;;;;;;;6.32;4.18;;;;;;;13.01;49.01;96233.28;4936870;29;20052;-81
2023/06/14 03:45:24;;;;;;;5.28;3.97;;;;;;;13.01;49.08;96235.06;4938098;29;20749;-81
2023/06/14 03:47:52;;;;;;;6.95;4.43;;;;;;;12.99;49.06;96249.19;4938125;29;20088;-81
2023/06/14 03:50:20;;;;;;;5.70;3.75;;;;;;;13.01;49.02;96246.38;4936505;29;20084;-79
2023/06/14 03:52:50;;;;;;;4.18;3.75;;;;;;;13.00;49.16;96244.75;4934787;29;20056;-80
2023/06/14 03:55:18;;;;;;;4.78;3.88;;;;;;;13.07;49.37;96250.78;4934540;29;20048;-79
2023/06/14 03:57:50;;;;;;;7.55;5.40;;;;;;;13.15;50.11;96261.03;4935817;29;20084;-80
2023/06/14 04:00:19;;;;;;;5.63;4.55;;;;;;;13.18;50.65;96268.50;4938082;29;20060;-81
2023/06/14 04:02:47;;;;;;;8.65;6.10;;;;;;;13.26;50.92;96272.69;4938145;29;20107;-81
2023/06/14 04:05:18;;;;;;;8.40;6.30;;;;;;;13.31;51.14;96262.41;4938912;29;20052;-79
2023/06/14 04:07:48;;;;;;;5.85;4.88;;;;;;;13.39;51.13;96266.63;4938279;29;20066;-79
2023/06/14 04:10:17;;;;;;;7.35;5.50;;;;;;;13.52;50.95;96257.91;4939034;29;20122;-80
2023/06/14 04:12:45;;;;;;;8.18;5.20;;;;;;;13.63;50.66;96264.31;4939074;29;20095;-79
2023/06/14 04:15:15;;;;;;;6.95;6.18;;;;;;;13.63;50.63;96266.94;4938736;29;20060;-80
2023/06/14 04:17:48;;;;;;;10.30;5.15;;;;;;;13.56;50.57;96273.00;4937993;29;20052;-80
2023/06/14 04:20:16;;;;;;;10.20;5.20;;;;;;;13.52;50.56;96274.44;4938371;29;20076;-79
2023/06/14 04:22:45;;;;;;;7.10;5.70;;;;;;;13.45;50.79;96271.03;4937956;29;20088;-80
2023/06/14 04:25:13;;;;;;;8.60;4.90;;;;;;;13.38;50.74;96272.88;4938875;29;20040;-81
2023/06/14 05:59:37;;;;;;;8.30;6.07;;;;;;;14.83;50.94;96332.56;5295158;23;20046;-82
2023/06/14 06:02:05;;;;;;;7.93;6.00;;;;;;;14.93;51.28;96326.81;4994829;28;20112;-82
2023/06/14 06:04:33;;;;;;;10.50;5.57;;;;;;;15.06;51.64;96320.66;4993022;28;20049;-81
2023/06/14 06:07:03;;;;;;;8.02;5.70;;;;;;;15.18;50.87;96324.19;4990808;28;20051;-83
2023/06/14 06:09:31;;;;;;;9.20;5.90;;;;;;;15.28;50.84;96323.66;4970911;28;20075;-83
2023/06/14 06:28:19;;;;;;;5.45;4.93;;;;;;;15.93;49.97;96334.47;5035065;23;20441;-79
2023/06/14 06:30:54;;;;;;;7.05;5.13;;;;;;;16.04;49.68;96338.97;5019312;28;20125;-79
2023/06/14 06:41:48;;;;;;;6.65;5.45;;;;;;;16.50;49.24;96335.94;5574537;23;20022;-79
2023/06/14 06:44:25;;;;;;;7.32;5.20;;;;;;;16.60;49.10;96338.84;5017849;28;20038;-79
2023/06/14 07:47:06;;;;;;;5.60;3.60;;;;;;;19.31;40.68;96373.19;4981630;28;20059;-80
2023/06/14 07:49:33;;;;;;;4.13;2.97;;;;;;;19.41;40.40;96383.09;4972570;28;20431;-78
2023/06/14 07:52:01;;;;;;;5.15;3.72;;;;;;;19.50;40.75;96372.91;4976753;28;20051;-80
2023/06/14 07:54:30;;;;;;;5.05;3.63;;;;;;;19.61;40.29;96379.94;4974306;28;20223;-79
2023/06/14 07:57:00;;;;;;;3.80;3.25;;;;;;;19.73;40.36;96385.16;4978478;28;20109;-80
2023/06/14 07:59:27;;;;;;;3.42;3.13;;;;;;;19.86;40.23;96381.38;4978678;28;20078;-80
2023/06/14 08:01:55;;;;;;;7.05;4.22;;;;;;;19.96;39.58;96384.94;4965856;28;20470;-80
2023/06/14 08:04:24;;;;;;;4.43;3.80;;;;;;;20.06;39.99;96381.59;4975275;28;20050;-80
2023/06/14 08:06:52;;;;;;;6.45;3.70;;;;;;;20.20;39.68;96386.50;4963370;28;20511;-80
2023/06/14 15:04:50;;;;;;;4.50;2.95;;;;;;;24.53;28.02;96387.25;4921062;29;20568;-83
2023/06/14 15:07:17;;;;;;;5.50;2.83;;;;;;;24.53;27.84;96387.25;4920679;29;20056;-80
2023/06/14 15:09:45;;;;;;;5.70;2.95;;;;;;;24.48;28.04;96379.28;4918756;29;20075;-81
2023/06/14 15:12:13;;;;;;;3.92;2.50;;;;;;;24.46;28.39;96378.72;4910848;29;20056;-82
2023/06/14 15:14:40;;;;;;;5.05;2.60;;;;;;;24.47;28.44;96385.66;4909015;29;20060;-80
2023/06/14 15:17:08;;;;;;;6.93;3.78;;;;;;;24.46;27.95;96382.19;4918373;29;20054;-81
2023/06/14 15:19:36;;;;;;;3.70;2.97;;;;;;;24.41;27.90;96384.09;4918859;29;20075;-81
2023/06/14 15:22:05;;;;;;;4.55;2.50;;;;;;;24.34;27.75;96389.72;4917951;29;20054;-80
2023/06/14 15:24:34;;;;;;;4.75;3.13;;;;;;;24.31;28.30;96389.47;4918210;29;20151;-81
2023/06/14 15:27:12;;;;;;;3.28;2.33;;;;;;;24.27;28.66;96390.03;4902096;29;20112;-81
2023/06/14 15:29:41;;;;;;;7.22;2.63;;;;;;;24.25;28.56;96386.84;4915923;29;20468;-81
2023/06/14 15:32:10;;;;;;;2.80;2.55;;;;;;;24.23;28.36;96399.66;4917370;29;20052;-79
2023/06/14 15:34:39;;;;;;;4.65;2.58;;;;;;;24.22;28.48;96397.25;4913320;29;20052;-80
2023/06/14 15:37:08;;;;;;;3.67;2.67;;;;;;;24.18;28.71;96393.53;4906636;29;20513;-83
2023/06/14 15:39:36;;;;;;;9.32;3.10;;;;;;;24.17;28.71;96387.41;4903866;29;20092;-82
2023/06/14 15:42:04;;;;;;;3.38;2.70;;;;;;;24.18;30.00;96391.69;4920582;29;20556;-84
2023/06/14 15:44:31;;;;;;;3.42;2.83;;;;;;;24.19;29.72;96385.28;4910016;29;20060;-85
2023/06/14 15:46:59;;;;;;;4.20;2.75;;;;;;;24.17;29.00;96390.06;4907889;29;20052;-83
2023/06/14 15:49:27;;;;;;;4.32;2.38;;;;;;;24.12;29.53;96381.28;4910733;29;20099;-89
2023/06/14 15:51:57;;;;;;;3.40;2.65;;;;;;;24.08;30.44;96388.28;4923983;29;20052;-90
2023/06/14 15:54:26;;;;;;;4.75;2.92;;;;;;;24.07;29.73;96395.44;4919643;29;20060;-86
2023/06/14 15:56:53;;;;;;;3.85;2.70;;;;;;;24.08;29.40;96385.59;4904266;29;20052;-87
2023/06/14 15:59:21;;;;;;;2.63;2.42;;;;;;;24.07;29.35;96384.78;4905390;29;20049;-86
2023/06/14 16:01:49;;;;;;;4.63;3.20;;;;;;;24.06;29.38;96391.19;4917809;29;20048;-88
2023/06/14 16:04:17;;;;;;;6.90;3.22;;;;;;;24.06;30.39;96384.00;4924402;29;20647;-86
2023/06/14 16:06:45;;;;;;;4.97;3.10;;;;;;;24.08;29.88;96385.59;4931255;28;20044;-91
2023/06/14 16:09:12;;;;;;;6.43;2.80;;;;;;;24.07;29.73;96395.44;4932260;28;20056;-87
2023/06/14 16:11:41;;;;;;;3.22;2.72;;;;;;;24.10;30.08;96391.47;4928671;28;20052;-88
2023/06/14 16:14:09;;;;;;;4.50;2.53;;;;;;;24.14;30.18;96384.50;4925607;29;20044;-86
2023/06/14 16:16:37;;;;;;;3.50;2.75;;;;;;;24.17;30.01;96387.41;4921212;29;20104;-87
2023/06/14 16:19:05;;;;;;;3.78;3.03;;;;;;;24.21;30.53;96383.13;4922932;29;20055;-87
2023/06/14 16:21:36;;;;;;;3.92;2.72;;;;;;;24.25;29.83;96386.84;4922139;29;20060;-87
2023/06/14 16:24:04;;;;;;;8.07;4.25;;;;;;;24.31;29.69;96386.81;4921257;29;20052;-88
2023/06/14 16:26:35;;;;;;;4.88;3.25;;;;;;;24.33;29.38;96398.00;4906285;29;20053;-92
2023/06/14 16:29:04;;;;;;;3.13;2.38;;;;;;;24.32;29.60;96391.09;4913801;29;20057;-88
2023/06/14 16:31:34;;;;;;;4.07;2.58;;;;;;;24.29;29.49;96392.41;4911581;29;20080;-87
2023/06/14 16:34:04;;;;;;;2.63;2.38;;;;;;;24.26;29.56;96393.75;4906768;29;20053;-87
2023/06/14 16:36:32;;;;;;;4.47;2.55;;;;;;;24.25;29.15;96388.72;4913208;29;20056;-88
2023/06/14 16:39:00;;;;;;;4.22;2.50;;;;;;;24.23;29.78;96394.31;4910331;29;20060;-89
2023/06/14 16:41:28;;;;;;;3.40;2.67;;;;;;;24.21;29.70;96396.47;4929097;29;20048;-89
2023/06/14 16:43:56;;;;;;;6.18;3.08;;;;;;;24.21;29.92;96395.66;4929344;28;20115;-87
2023/06/14 16:46:30;;;;;;;3.58;3.10;;;;;;;24.19;29.86;96406.59;4920019;29;20063;-88
2023/06/14 16:48:58;;;;;;;3.22;2.83;;;;;;;24.15;29.95;96402.88;4923662;29;20054;-86
2023/06/14 16:51:26;;;;;;;3.10;2.80;;;;;;;24.13;29.69;96413.00;4918267;29;20044;-86
2023/06/14 16:53:55;;;;;;;3.90;2.90;;;;;;;24.13;29.57;96413.00;4913976;29;20056;-87
2023/06/14 16:56:25;;;;;;;5.63;2.50;;;;;;;24.15;30.21;96413.53;4922554;29;20063;-86
2023/06/14 16:58:54;;;;;;;3.63;3.10;;;;;;;24.17;29.60;96416.72;4923485;29;20127;-87
2023/06/14 17:01:22;;;;;;;3.90;3.10;;;;;;;24.19;29.44;96411.91;4922254;29;20056;-87
2023/06/14 17:03:52;;;;;;;4.53;2.78;;;;;;;24.22;29.50;96419.34;4920984;29;20059;-87
2023/06/14 17:06:22;;;;;;;5.15;2.90;;;;;;;24.24;29.84;96419.09;4919879;29;20052;-86
2023/06/14 17:08:50;;;;;;;4.68;2.95;;;;;;;24.23;30.07;96426.31;4917868;29;20505;-88
2023/06/14 17:11:22;;;;;;;3.83;2.70;;;;;;;24.18;29.65;96423.66;4904351;29;20056;-87
2023/06/14 17:13:51;;;;;;;2.83;2.55;;;;;;;24.11;29.78;96423.16;4912631;29;20052;-86
2023/06/14 17:16:20;;;;;;;6.38;2.47;;;;;;;24.04;30.33;96427.97;4919494;29;20134;-88
2023/06/14 17:18:48;;;;;;;4.13;3.50;;;;;;;23.98;30.49;96431.72;4921051;29;20059;-87
2023/06/14 17:21:17;;;;;;;3.25;2.70;;;;;;;23.94;30.56;96436.00;4922244;29;20059;-86
2023/06/14 17:23:45;;;;;;;6.03;2.90;;;;;;;23.89;30.33;96431.47;4918944;29;20052;-86
2023/06/14 17:26:13;;;;;;;5.30;3.00;;;;;;;23.83;30.70;96433.38;4904368;29;20063;-87
2023/06/14 17:28:40;;;;;;;3.63;3.03;;;;;;;23.79;30.55;96436.81;4910838;29;20048;-87
2023/06/14 17:31:08;;;;;;;4.07;2.55;;;;;;;23.76;30.61;96437.38;4910588;29;20074;-81
2023/06/14 17:33:37;;;;;;;2.92;2.55;;;;;;;23.71;30.19;96438.16;4919463;29;20059;-86
2023/06/14 17:36:05;;;;;;;3.70;3.08;;;;;;;23.68;30.37;96436.03;4932526;29;20052;-87
2023/06/14 17:38:35;;;;;;;3.53;2.47;;;;;;;23.61;30.95;96436.31;4938596;28;20060;-88
2023/06/14 17:41:08;;;;;;;5.38;2.90;;;;;;;23.56;31.16;96443.50;4932349;29;20087;-89
2023/06/14 17:43:36;;;;;;;4.82;2.80;;;;;;;23.54;31.20;96442.97;4931126;28;20104;-85
2023/06/14 17:46:04;;;;;;;4.03;2.72;;;;;;;23.52;31.21;96447.78;4927704;28;20052;-85
2023/06/14 17:48:33;;;;;;;10.43;2.67;;;;;;;23.47;30.52;96450.44;4936153;29;20062;-87
2023/06/14 17:51:01;;;;;;;3.08;2.72;;;;;;;23.40;30.62;96454.16;4925559;29;20067;-86
2023/06/14 17:53:29;;;;;;;6.38;2.72;;;;;;;23.34;31.27;96452.56;4931417;29;20048;-90
2023/06/14 17:55:58;;;;;;;2.83;2.47;;;;;;;23.30;31.02;96462.16;4920010;29;20048;-84
2023/06/14 17:58:26;;;;;;;6.03;3.22;;;;;;;23.27;31.10;96462.69;4933852;29;20157;-87
2023/06/14 18:00:54;;;;;;;4.32;2.78;;;;;;;23.24;30.96;96468.53;4935197;28;20080;-87
2023/06/14 18:03:21;;;;;;;2.92;2.63;;;;;;;23.20;31.11;96473.59;4929471;28;20055;-87
2023/06/14 18:05:50;;;;;;;6.32;2.78;;;;;;;23.18;31.15;96473.06;4939822;28;20043;-90
2023/06/14 18:08:17;;;;;;;7.10;3.95;;;;;;;23.17;31.97;96471.47;4938164;28;20079;-84
2023/06/14 18:10:45;;;;;;;8.23;4.40;;;;;;;23.15;31.62;96475.44;4939998;28;20092;-84
2023/06/14 18:13:14;;;;;;;4.68;3.00;;;;;;;23.12;31.52;96478.66;4943671;28;20105;-86
2023/06/14 18:15:42;;;;;;;3.63;2.80;;;;;;;23.04;31.41;96475.44;4941625;28;20060;-86
2023/06/14 18:18:10;;;;;;;5.30;3.30;;;;;;;22.97;31.38;96477.53;4943795;28;20036;-88
2023/06/14 18:20:37;;;;;;;5.10;3.40;;;;;;;22.91;31.75;96481.22;4936818;28;20084;-87
2023/06/14 18:23:05;;;;;;;4.80;3.38;;;;;;;22.88;31.88;96479.13;4941583;28;20040;-87
2023/06/14 18:25:33;;;;;;;6.45;3.88;;;;;;;22.85;31.99;96490.28;4936807;28;20044;-87
2023/06/14 18:28:00;;;;;;;4.28;3.60;;;;;;;22.81;32.11;96487.34;4924683;29;20053;-85
2023/06/14 18:30:31;;;;;;;6.93;3.38;;;;;;;22.78;31.99;96487.88;4926011;28;20044;-86
2023/06/14 18:32:59;;;;;;;4.07;2.97;;;;;;;22.74;31.97;96486.81;4938545;28;20036;-87
2023/06/14 18:35:28;;;;;;;5.22;3.15;;;;;;;22.70;32.17;96485.72;4935872;28;20067;-85
2023/06/14 18:37:56;;;;;;;6.70;3.03;;;;;;;22.66;32.42;96491.84;4925789;28;20059;-87
2023/06/14 18:40:24;;;;;;;4.28;2.70;;;;;;;22.64;32.30;96494.75;4942279;28;20032;-86
2023/06/14 18:42:51;;;;;;;5.20;3.35;;;;;;;22.61;32.62;96488.09;4924413;29;20079;-89
2023/06/14 18:45:19;;;;;;;4.38;3.17;;;;;;;22.59;32.84;96495.53;4927412;28;20068;-86
2023/06/14 18:47:48;;;;;;;3.70;3.35;;;;;;;22.57;32.96;96497.66;4942688;28;20060;-86
2023/06/14 18:50:17;;;;;;;4.13;3.05;;;;;;;22.57;32.75;96497.66;4942291;28;20047;-89
2023/06/14 18:52:45;;;;;;;4.32;3.22;;;;;;;22.56;32.77;96501.34;4921414;29;20047;-81
2023/06/14 18:55:13;;;;;;;5.05;3.22;;;;;;;22.55;32.80;96502.44;4921323;29;20665;-81
2023/06/14 18:57:41;;;;;;;3.33;2.83;;;;;;;22.53;32.71;96507.19;4927966;29;20063;-83
2023/06/14 19:00:10;;;;;;;4.30;3.10;;;;;;;22.50;32.47;96502.41;4912549;29;20117;-80
2023/06/14 19:02:38;;;;;;;6.05;3.30;;;;;;;22.46;32.76;96504.00;4905113;29;20080;-83
2023/06/14 19:05:08;;;;;;;4.65;3.38;;;;;;;22.44;32.59;96503.44;4920944;29;20083;-80
2023/06/14 19:07:36;;;;;;;5.85;3.75;;;;;;;22.39;32.78;96498.09;4924414;29;20048;-80
2023/06/14 19:10:04;;;;;;;5.00;3.47;;;;;;;22.36;33.04;96502.06;4926886;29;20060;-83
2023/06/14 19:12:32;;;;;;;4.00;3.55;;;;;;;22.35;33.09;96512.97;4941011;28;20032;-83
2023/06/14 19:14:59;;;;;;;7.30;3.10;;;;;;;22.31;33.31;96504.72;4941529;28;20068;-80
2023/06/14 19:17:32;;;;;;;7.50;3.28;;;;;;;22.29;33.00;96512.16;4936695;28;20068;-81
2023/06/14 19:19:59;;;;;;;4.25;3.45;;;;;;;22.28;33.45;96515.06;4925919;29;20519;-80
2023/06/14 19:22:29;;;;;;;3.65;3.13;;;;;;;22.24;33.80;96522.75;4926933;29;20103;-80
2023/06/14 19:24:56;;;;;;;5.57;2.90;;;;;;;22.19;33.96;96518.19;4928087;29;20071;-80
2023/06/14 19:27:24;;;;;;;3.85;3.33;;;;;;;22.16;33.89;96524.00;4927611;29;20056;-81
2023/06/14 19:29:52;;;;;;;8.13;3.80;;;;;;;22.14;34.58;96525.31;4922232;29;20501;-79
2023/06/14 19:32:20;;;;;;;3.72;3.42;;;;;;;22.11;34.41;96526.66;4912114;29;20075;-80
2023/06/14 19:34:47;;;;;;;3.55;3.08;;;;;;;22.05;34.83;96522.34;4919414;29;20271;-81
2023/06/14 19:37:15;;;;;;;11.30;3.42;;;;;;;21.99;34.77;96534.00;4935911;29;20052;-82
2023/06/14 19:39:44;;;;;;;4.00;2.70;;;;;;;21.95;35.48;96535.56;4939179;29;20052;-82
2023/06/14 19:42:12;;;;;;;3.28;2.85;;;;;;;21.90;35.36;96540.84;4940283;28;20079;-81
2023/06/14 19:44:40;;;;;;;5.80;3.35;;;;;;;21.85;35.51;96536.31;4940388;28;20036;-83
2023/06/14 19:47:07;;;;;;;3.40;3.10;;;;;;;21.79;35.80;96543.41;4940777;28;20107;-82
2023/06/14 19:49:35;;;;;;;3.75;3.38;;;;;;;21.74;36.34;96548.69;4941589;28;20095;-83
2023/06/14 19:52:04;;;;;;;3.60;3.00;;;;;;;21.67;36.71;96548.13;4941512;28;20032;-82
2023/06/14 19:54:31;;;;;;;4.68;2.88;;;;;;;21.62;37.13;96556.03;4941466;28;20587;-83
2023/06/14 19:57:00;;;;;;;3.97;2.95;;;;;;;21.54;37.23;96554.66;4941869;28;20064;-83
2023/06/14 19:59:31;;;;;;;6.50;3.08;;;;;;;21.48;37.50;96562.81;4941858;28;20032;-83
2023/06/14 20:01:59;;;;;;;4.10;3.20;;;;;;;21.42;37.41;96561.97;4941710;28;20040;-82
2023/06/14 20:04:26;;;;;;;6.22;3.28;;;;;;;21.31;37.80;96561.03;4941978;28;20040;-82
2023/06/14 20:06:58;;;;;;;5.50;3.17;;;;;;;21.23;37.87;96558.84;4941604;28;20107;-82
2023/06/14 20:09:26;;;;;;;8.38;3.67;;;;;;;21.19;38.15;96568.38;4928284;28;20035;-82
2023/06/14 20:11:54;;;;;;;8.45;3.70;;;;;;;21.13;38.33;96564.06;4942071;28;20044;-83
2023/06/14 20:14:23;;;;;;;5.65;3.35;;;;;;;21.05;38.64;96572.44;4942090;28;20032;-81
2023/06/14 20:16:51;;;;;;;5.80;3.28;;;;;;;20.99;38.50;96563.66;4942465;28;20040;-82
2023/06/14 20:19:23;;;;;;;3.72;3.20;;;;;;;20.94;39.13;96574.19;4942217;28;20068;-81
2023/06/14 20:21:51;;;;;;;5.97;3.58;;;;;;;20.88;38.84;96573.34;4942557;28;20036;-84
2023/06/14 20:24:20;;;;;;;6.57;3.38;;;;;;;20.84;39.05;96571.41;4941615;28;20040;-81
2023/06/14 20:26:49;;;;;;;5.15;3.13;;;;;;;20.79;39.03;96580.09;4942268;28;20365;-80
2023/06/14 20:29:17;;;;;;;6.05;3.80;;;;;;;20.77;39.35;96571.59;4932009;28;20028;-81
2023/06/14 20:31:46;;;;;;;3.95;2.92;;;;;;;20.71;39.62;96573.41;4922833;29;20064;-82
2023/06/14 20:34:14;;;;;;;8.80;3.45;;;;;;;20.65;39.90;96574.38;4923175;29;20040;-81
2023/06/14 20:36:41;;;;;;;7.88;3.33;;;;;;;20.57;39.81;96567.69;4923343;29;20043;-80
2023/06/14 20:39:09;;;;;;;6.07;3.67;;;;;;;20.50;39.73;96566.22;4922769;29;20033;-80
2023/06/14 20:41:37;;;;;;;3.55;3.25;;;;;;;20.43;40.28;96565.59;4922864;29;20100;-81
2023/06/14 20:44:08;;;;;;;4.35;3.78;;;;;;;20.34;40.80;96573.16;4932470;28;20044;-80
2023/06/14 20:47:19;;;;;;;5.13;3.45;;;;;;;20.25;40.83;96570.13;4942556;28;20036;-81
2023/06/14 20:49:51;;;;;;;6.18;3.80;;;;;;;20.17;41.13;96578.50;4942383;28;20060;-81
2023/06/14 20:52:19;;;;;;;;;;;;;;;20.12;40.98;96575.78;4942804;28;20048;-81
2023/06/14 20:55:17;;;;;;;3.60;3.22;;;;;;;19.99;41.23;96582.19;4942461;28;19931;-81
2023/06/14 22:10:21;;;;;;;5.45;4.82;;;;;;;17.82;45.48;96602.00;5647192;23;20059;-80
2023/06/14 22:18:32;;;;;;;4.93;3.92;;;;;;;17.63;45.54;96601.25;4920410;29;20091;-80
2023/06/14 22:21:00;;;;;;;4.30;3.50;;;;;;;17.57;45.93;96599.50;4921894;29;20044;-80
2023/06/14 22:23:35;;;;;;;6.07;3.80;;;;;;;17.52;46.11;96602.03;4921716;29;20076;-80
2023/06/14 22:26:07;;;;;;;7.55;3.85;;;;;;;17.42;46.10;96599.13;4922033;29;20056;-80
2023/06/14 22:28:41;;;;;;;3.85;3.55;;;;;;;17.36;46.18;96605.28;4922059;29;20185;-80
2023/06/14 22:31:10;;;;;;;4.45;4.05;;;;;;;17.28;46.17;96596.66;4960777;23;20107;-90
2023/06/14 22:33:41;;;;;;;7.43;3.50;;;;;;;17.23;46.29;96599.19;4947363;29;20043;-89
2023/06/14 22:36:15;;;;;;;4.65;3.58;;;;;;;17.20;46.67;96596.97;4946358;29;20115;-90
2023/06/14 22:38:47;;;;;;;6.82;3.88;;;;;;;17.16;46.59;96603.72;4947017;29;20059;-90
2023/06/14 22:41:19;;;;;;;4.65;3.60;;;;;;;17.15;47.10;96598.69;4947157;29;20044;-86
2023/06/14 22:43:47;;;;;;;5.80;3.80;;;;;;;17.16;46.94;96598.44;4948959;29;20130;-89
2023/06/14 22:46:22;;;;;;;6.75;4.18;;;;;;;17.16;46.60;96608.19;4949164;29;20508;-90
2023/06/14 22:48:53;;;;;;;7.00;4.03;;;;;;;17.15;46.92;96612.66;4947955;29;20047;-87
2023/06/14 22:51:27;;;;;;;7.43;4.13;;;;;;;17.11;46.90;96602.81;4947726;29;20051;-90
2023/06/14 22:53:55;;;;;;;6.03;4.57;;;;;;;17.07;47.07;96618.25;4948032;29;20070;-89